Time;durP1;ratioP1;P1;durP2;ratioP2;P2;SDS_P1;SDS_P2;PMS_P1;PMS_P2;Temp;Humidity;BMP_temperature;BMP_pressure;BME280_temperature;BME280_humidity;BME280_pressure;Samples;Min_cycle;Max_cycle;Signal;HPM_P1;HPM_P2
2023/12/29 00:02:26;;;;;;;26.50;14.90;;;;;;;6.22;72.56;99066.33;105527;1255;96631;-69
2023/12/29 00:04:54;;;;;;;27.50;14.60;;;;;;;6.23;72.71;99063.60;105097;1258;107639;-70
2023/12/29 00:07:22;;;;;;;29.40;15.50;;;;;;;6.24;72.55;99058.42;105585;1258;96647;-68
2023/12/29 00:09:50;;;;;;;27.00;15.20;;;;;;;6.27;72.40;99060.98;105188;1254;97430;-68
2023/12/29 00:12:18;;;;;;;32.40;16.20;;;;;;;6.28;72.39;99067.05;105356;1258;109309;-69
2023/12/29 00:14:46;;;;;;;29.20;14.80;;;;;;;6.31;72.44;99064.48;105100;1254;96675;-70
2023/12/29 00:17:14;;;;;;;28.40;15.00;;;;;;;6.32;72.45;99062.75;105489;1258;107696;-69
2023/12/29 00:19:42;;;;;;;28.60;15.40;;;;;;;6.33;72.56;99059.17;105202;1261;96563;-68
2023/12/29 00:22:10;;;;;;;27.50;15.60;;;;;;;6.35;72.82;99058.41;105207;1258;96661;-69
2023/12/29 00:24:39;;;;;;;28.00;15.00;;;;;;;6.35;72.80;99059.94;105228;1256;110004;-68
2023/12/29 00:27:07;;;;;;;27.80;15.60;;;;;;;6.36;72.59;99057.78;105644;1258;96527;-68
2023/12/29 00:29:35;;;;;;;28.40;15.50;;;;;;;6.38;72.77;99056.08;105467;1258;107413;-69
2023/12/29 00:32:04;;;;;;;26.70;14.30;;;;;;;6.39;72.63;99056.59;104988;1254;96634;-71
2023/12/29 00:34:32;;;;;;;28.50;15.30;;;;;;;6.40;72.57;99061.29;105469;1255;96590;-70
2023/12/29 00:37:01;;;;;;;29.00;15.70;;;;;;;6.41;72.59;99057.70;105404;1258;109643;-69
2023/12/29 00:39:30;;;;;;;25.80;13.80;;;;;;;6.42;72.41;99054.64;105519;1258;96612;-69
2023/12/29 00:41:59;;;;;;;28.10;15.00;;;;;;;6.44;72.49;99047.88;105332;1254;107733;-70
2023/12/29 00:44:27;;;;;;;29.60;15.70;;;;;;;6.45;72.39;99053.46;105225;1254;97666;-70
2023/12/29 00:46:55;;;;;;;27.60;14.90;;;;;;;6.46;72.41;99045.50;105119;1262;96673;-68
2023/12/29 00:49:23;;;;;;;28.10;15.50;;;;;;;6.45;72.58;99042.87;105428;1258;109912;-70
2023/12/29 00:51:51;;;;;;;30.00;15.60;;;;;;;6.45;72.47;99046.24;105164;1256;97963;-69
2023/12/29 00:54:19;;;;;;;27.40;14.60;;;;;;;6.44;72.51;99045.73;105173;1270;107558;-68
2023/12/29 00:56:51;;;;;;;28.60;16.10;;;;;;;6.44;72.61;99040.84;105331;1254;96601;-69
2023/12/29 00:59:22;;;;;;;27.70;15.20;;;;;;;6.44;72.46;99043.64;108479;1254;94547;-69
2023/12/29 01:01:50;;;;;;;26.40;13.80;;;;;;;6.45;72.26;99046.04;108311;1255;110021;-69
2023/12/29 01:04:18;;;;;;;26.50;14.10;;;;;;;6.47;72.52;99045.42;108543;1254;95574;-69
2023/12/29 01:06:46;;;;;;;27.80;14.50;;;;;;;6.48;72.54;99042.69;108539;1254;106813;-70
2023/12/29 01:09:14;;;;;;;27.30;14.10;;;;;;;6.49;72.54;99032.25;106450;1255;96746;-69
2023/12/29 01:11:41;;;;;;;25.60;14.50;;;;;;;6.51;72.69;99037.11;104961;1260;97357;-68
2023/12/29 01:14:10;;;;;;;26.40;14.30;;;;;;;6.52;72.23;99036.33;105274;1254;112009;-69
2023/12/29 01:16:38;;;;;;;27.30;14.50;;;;;;;6.52;72.59;99035.41;105142;1255;96658;-70
2023/12/29 01:19:06;;;;;;;28.90;15.30;;;;;;;6.53;72.44;99036.80;105004;1258;107769;-71
2023/12/29 01:21:37;;;;;;;28.30;15.60;;;;;;;6.52;72.45;99031.70;104946;1254;96635;-70
2023/12/29 01:24:07;;;;;;;28.40;15.20;;;;;;;6.52;72.57;99030.34;105219;1255;96605;-70
2023/12/29 01:26:38;;;;;;;28.10;15.50;;;;;;;6.51;72.43;99027.56;105331;1258;109845;-70
2023/12/29 01:29:06;;;;;;;29.50;15.40;;;;;;;6.50;72.58;99028.49;105313;1258;97446;-70
2023/12/29 01:31:34;;;;;;;27.20;14.00;;;;;;;6.49;72.36;99020.47;105119;1256;107711;-69
2023/12/29 01:34:02;;;;;;;28.70;15.30;;;;;;;6.48;72.44;99023.48;105282;1258;96689;-69
2023/12/29 01:36:30;;;;;;;27.70;15.60;;;;;;;6.48;72.38;99027.41;105242;1260;96569;-71
2023/12/29 01:38:59;;;;;;;26.20;14.90;;;;;;;6.49;72.42;99032.62;105261;1255;109182;-69
2023/12/29 01:41:27;;;;;;;28.00;14.40;;;;;;;6.49;72.44;99025.74;105192;1258;96584;-69
2023/12/29 01:44:01;;;;;;;25.70;14.60;;;;;;;6.49;72.56;99020.27;105177;1254;105985;-68
2023/12/29 01:46:33;;;;;;;28.70;14.90;;;;;;;6.48;72.75;99011.14;105236;1260;96649;-70
2023/12/29 01:49:01;;;;;;;26.10;15.00;;;;;;;6.47;72.64;98999.41;105087;1258;96631;-70
2023/12/29 01:51:30;;;;;;;26.10;14.90;;;;;;;6.46;72.72;99001.61;105217;1258;109378;-70
2023/12/29 01:53:59;;;;;;;31.40;15.40;;;;;;;6.46;72.64;99003.52;105008;1254;97958;-70
2023/12/29 01:56:27;;;;;;;31.10;16.80;;;;;;;6.46;72.74;99009.17;105249;1254;107517;-69
2023/12/29 01:58:55;;;;;;;30.00;16.70;;;;;;;6.46;72.69;99014.79;105170;1258;97927;-68
2023/12/29 02:01:37;;;;;;;27.80;14.90;;;;;;;6.45;72.78;99008.33;105206;1257;96536;-69
2023/12/29 02:04:06;;;;;;;26.10;14.10;;;;;;;6.46;72.80;99007.09;105273;1258;110304;-68
2023/12/29 02:06:35;;;;;;;29.80;15.20;;;;;;;6.46;73.10;98999.68;107036;1254;96606;-69
2023/12/29 02:09:04;;;;;;;25.10;13.30;;;;;;;6.46;72.91;98997.92;105821;1258;107509;-69
2023/12/29 02:11:32;;;;;;;26.20;14.20;;;;;;;6.46;73.02;98997.89;105361;1258;97958;-69
2023/12/29 02:14:01;;;;;;;26.30;13.90;;;;;;;6.46;72.84;98993.98;105332;1254;96654;-69
2023/12/29 02:16:43;;;;;;;26.70;14.50;;;;;;;6.48;72.84;99001.14;105214;1258;109871;-69
2023/12/29 02:19:34;;;;;;;25.20;13.20;;;;;;;6.48;73.03;98994.25;105299;1258;96595;-70
2023/12/29 02:22:02;;;;;;;29.50;14.10;;;;;;;6.49;72.68;98997.73;104837;1261;107307;-70
2023/12/29 02:24:31;;;;;;;25.70;12.70;;;;;;;6.49;72.85;98997.55;105097;1256;97542;-70
2023/12/29 02:27:20;;;;;;;26.20;13.10;;;;;;;6.51;72.74;99007.14;105458;1255;96539;-69
2023/12/29 02:30:06;;;;;;;24.40;12.10;;;;;;;6.51;73.05;98998.99;105183;1260;109723;-70
2023/12/29 02:32:37;;;;;;;24.30;13.10;;;;;;;6.52;72.90;98990.52;104905;1260;96634;-70
2023/12/29 02:35:10;;;;;;;23.10;13.00;;;;;;;6.52;72.73;98988.58;104883;1254;106518;-69
2023/12/29 02:37:39;;;;;;;24.10;13.70;;;;;;;6.53;72.87;98988.86;105209;1255;96628;-70
2023/12/29 02:40:09;;;;;;;26.20;12.70;;;;;;;6.53;73.00;98990.79;105366;1254;96538;-69
2023/12/29 02:42:37;;;;;;;22.50;12.00;;;;;;;6.52;72.92;98980.64;105041;1258;109897;-69
2023/12/29 02:45:05;;;;;;;23.90;12.10;;;;;;;6.51;72.97;98974.69;104945;1254;96625;-70
2023/12/29 02:47:33;;;;;;;26.70;13.40;;;;;;;6.50;72.77;98971.95;105189;1260;107428;-70
2023/12/29 02:50:01;;;;;;;24.70;12.80;;;;;;;6.50;72.89;98971.08;105238;1258;96721;-69
2023/12/29 02:52:29;;;;;;;25.30;12.70;;;;;;;6.50;72.96;98976.87;105249;1258;96607;-69
2023/12/29 02:54:57;;;;;;;23.20;12.00;;;;;;;6.50;73.08;98985.64;105154;1255;109485;-69
2023/12/29 02:57:24;;;;;;;25.90;12.60;;;;;;;6.49;73.12;98979.02;104838;1260;96593;-69
2023/12/29 02:59:52;;;;;;;22.20;12.10;;;;;;;6.49;72.98;98973.78;105022;1258;107647;-69
2023/12/29 03:02:20;;;;;;;23.00;12.30;;;;;;;6.49;72.86;98978.02;105428;1258;97187;-70
2023/12/29 03:04:49;;;;;;;22.80;12.50;;;;;;;6.48;73.01;98972.40;104938;1260;96606;-70
2023/12/29 03:07:16;;;;;;;22.60;11.70;;;;;;;6.48;73.11;98969.44;105332;1258;109460;-68
2023/12/29 03:09:44;;;;;;;25.30;12.80;;;;;;;6.47;73.43;98967.21;104892;1261;96621;-70
2023/12/29 03:12:12;;;;;;;24.60;12.30;;;;;;;6.46;73.15;98967.27;105245;1258;107191;-70
2023/12/29 03:14:40;;;;;;;23.30;12.40;;;;;;;6.44;73.22;98965.73;105212;1261;96624;-69
2023/12/29 03:17:08;;;;;;;22.70;12.70;;;;;;;6.44;73.54;98965.97;104949;1260;96644;-70
2023/12/29 03:19:36;;;;;;;25.90;13.20;;;;;;;6.43;73.14;98967.23;105130;1258;109977;-69
2023/12/29 03:22:04;;;;;;;23.50;12.50;;;;;;;6.42;73.38;98961.64;105304;1255;96596;-70
2023/12/29 03:24:32;;;;;;;25.00;12.80;;;;;;;6.41;73.27;98964.52;105265;1258;106098;-71
2023/12/29 03:27:00;;;;;;;25.50;14.00;;;;;;;6.40;73.35;98964.38;105101;1254;96672;-67
2023/12/29 03:29:28;;;;;;;24.40;13.60;;;;;;;6.39;73.48;98960.21;104969;1271;96733;-70
2023/12/29 03:31:56;;;;;;;24.40;13.90;;;;;;;6.38;73.20;98957.63;105050;1256;109931;-68
2023/12/29 03:34:24;;;;;;;25.70;14.30;;;;;;;6.37;73.40;98967.94;105201;1259;96745;-71
2023/12/29 03:36:52;;;;;;;25.20;13.70;;;;;;;6.35;73.64;98966.98;105110;1257;107168;-70
2023/12/29 03:39:20;;;;;;;24.40;13.80;;;;;;;6.34;73.16;98959.42;105170;1260;97890;-69
2023/12/29 03:41:48;;;;;;;28.40;15.20;;;;;;;6.33;73.58;98954.75;104910;1258;97546;-70
2023/12/29 03:44:17;;;;;;;29.50;15.70;;;;;;;6.31;73.84;98958.23;105210;1255;109878;-69
2023/12/29 03:46:46;;;;;;;28.40;15.50;;;;;;;6.29;74.04;98954.27;105262;1254;97944;-68
2023/12/29 03:49:14;;;;;;;28.70;16.40;;;;;;;6.27;73.92;98948.93;104802;1259;107306;-70
2023/12/29 03:51:42;;;;;;;29.20;16.50;;;;;;;6.26;73.96;98951.98;105360;1258;96659;-69
2023/12/29 03:54:10;;;;;;;27.20;14.60;;;;;;;6.25;73.93;98948.85;105173;1254;97389;-69
2023/12/29 03:56:38;;;;;;;28.50;15.60;;;;;;;6.25;74.03;98943.96;105665;1258;110090;-70
2023/12/29 03:59:06;;;;;;;28.90;15.30;;;;;;;6.23;73.96;98942.45;105514;1257;96633;-69
2023/12/29 04:01:34;;;;;;;29.30;16.60;;;;;;;6.22;73.85;98929.65;105498;1255;107324;-69
2023/12/29 04:04:03;;;;;;;28.80;16.40;;;;;;;6.20;74.16;98928.71;105412;1258;96667;-71
2023/12/29 04:06:31;;;;;;;32.50;17.90;;;;;;;6.16;74.17;98927.89;105572;1254;97824;-68
2023/12/29 04:08:59;;;;;;;28.70;15.90;;;;;;;6.14;74.06;98921.84;105114;1258;109942;-69
2023/12/29 04:11:27;;;;;;;27.90;15.80;;;;;;;6.11;74.33;98923.75;105236;1254;97404;-69
2023/12/29 04:13:54;;;;;;;29.60;16.70;;;;;;;6.08;74.53;98922.54;105249;1269;107530;-70
2023/12/29 04:16:22;;;;;;;28.90;16.40;;;;;;;6.06;74.39;98925.30;105193;1258;97827;-69
2023/12/29 04:18:50;;;;;;;29.70;16.00;;;;;;;6.04;73.96;98924.67;105306;1261;96710;-68
2023/12/29 04:21:18;;;;;;;30.70;16.70;;;;;;;6.04;74.26;98921.36;105401;1258;109847;-70
2023/12/29 04:23:46;;;;;;;30.60;16.30;;;;;;;6.02;74.21;98920.59;105427;1254;96598;-69
2023/12/29 04:26:14;;;;;;;32.90;17.20;;;;;;;5.99;74.44;98917.38;105159;1261;106599;-69
2023/12/29 04:28:42;;;;;;;29.00;16.40;;;;;;;5.97;74.05;98912.71;105299;1255;97519;-69
2023/12/29 04:31:10;;;;;;;31.30;17.40;;;;;;;5.95;74.67;98921.78;105324;1260;96503;-69
2023/12/29 04:33:38;;;;;;;29.20;16.90;;;;;;;5.93;74.54;98917.50;105331;1255;109585;-70
2023/12/29 04:36:07;;;;;;;28.70;15.30;;;;;;;5.92;74.52;98914.74;105307;1258;97428;-70
2023/12/29 04:38:34;;;;;;;28.60;15.90;;;;;;;5.91;74.25;98911.48;105185;1260;107483;-70
2023/12/29 04:41:03;;;;;;;29.90;16.10;;;;;;;5.89;74.53;98907.55;105246;1258;96633;-69
2023/12/29 04:43:30;;;;;;;29.90;17.00;;;;;;;5.85;74.65;98904.77;104806;1261;96610;-69
2023/12/29 04:45:59;;;;;;;31.60;17.10;;;;;;;5.82;74.50;98905.98;105014;1265;109827;-70
2023/12/29 04:48:27;;;;;;;29.10;16.30;;;;;;;5.80;74.21;98903.27;105359;1258;97428;-70
2023/12/29 04:50:54;;;;;;;29.30;16.50;;;;;;;5.78;74.37;98903.19;105326;1259;107340;-70
2023/12/29 04:53:23;;;;;;;31.30;16.80;;;;;;;5.76;74.23;98899.81;105352;1260;96730;-70
2023/12/29 04:55:50;;;;;;;29.10;16.20;;;;;;;5.74;74.29;98898.66;105204;1258;96602;-70
2023/12/29 04:58:18;;;;;;;29.60;16.40;;;;;;;5.72;74.76;98902.11;105111;1258;110181;-68
2023/12/29 05:00:46;;;;;;;25.90;14.20;;;;;;;5.70;74.39;98910.71;105244;1255;96497;-68
2023/12/29 05:03:14;;;;;;;30.30;15.90;;;;;;;5.71;74.25;98907.67;105431;1258;105887;-69
2023/12/29 05:05:42;;;;;;;28.10;14.90;;;;;;;5.72;74.12;98903.39;105330;1258;96692;-75
2023/12/29 05:08:12;;;;;;;26.90;14.50;;;;;;;5.72;74.23;98905.16;105208;1257;96532;-72
2023/12/29 05:10:40;;;;;;;28.80;15.20;;;;;;;5.68;74.51;98906.59;105219;1258;111160;-74
2023/12/29 05:13:08;;;;;;;28.40;15.50;;;;;;;5.65;74.43;98901.66;105299;1255;98004;-69
2023/12/29 05:15:36;;;;;;;27.80;15.10;;;;;;;5.61;74.25;98902.38;105311;1258;107627;-69
2023/12/29 05:18:05;;;;;;;27.50;14.50;;;;;;;5.58;74.53;98899.38;105367;1256;96621;-71
2023/12/29 05:20:34;;;;;;;29.40;14.90;;;;;;;5.55;74.56;98899.19;105366;1258;96608;-71
2023/12/29 05:23:01;;;;;;;29.00;13.90;;;;;;;5.55;74.09;98898.36;105098;1271;109837;-70
2023/12/29 05:25:29;;;;;;;29.10;14.00;;;;;;;5.54;74.52;98897.86;105037;1261;97531;-69
2023/12/29 05:27:57;;;;;;;29.90;15.80;;;;;;;5.51;74.52;98898.20;104796;1255;107873;-69
2023/12/29 05:30:27;;;;;;;26.70;14.30;;;;;;;5.48;74.33;98904.52;105386;1271;96654;-70
2023/12/29 05:32:55;;;;;;;27.70;14.10;;;;;;;5.48;74.14;98914.02;105428;1260;96586;-69
2023/12/29 05:35:23;;;;;;;28.70;15.70;;;;;;;5.49;74.09;98915.17;105216;1254;111346;-69
2023/12/29 05:37:51;;;;;;;30.20;15.30;;;;;;;5.50;74.19;98907.20;105065;1260;96602;-68
2023/12/29 05:40:19;;;;;;;29.30;15.90;;;;;;;5.49;74.25;98913.76;105315;1269;107732;-70
2023/12/29 05:42:47;;;;;;;26.40;14.90;;;;;;;5.49;74.21;98918.88;105210;1258;96631;-70
2023/12/29 05:45:18;;;;;;;27.40;14.60;;;;;;;5.48;74.34;98921.91;105404;1256;96568;-69
2023/12/29 05:47:46;;;;;;;26.60;14.30;;;;;;;5.46;74.27;98916.20;105291;1261;109895;-68
2023/12/29 05:50:14;;;;;;;28.80;16.00;;;;;;;5.45;74.56;98913.61;105268;1260;96525;-69
2023/12/29 05:52:42;;;;;;;30.80;15.90;;;;;;;5.43;74.31;98915.48;106974;1254;107070;-69
2023/12/29 05:55:09;;;;;;;29.00;15.40;;;;;;;5.41;74.38;98913.34;105134;1258;96681;-69
2023/12/29 05:57:38;;;;;;;27.50;14.60;;;;;;;5.37;74.47;98910.88;105479;1255;96577;-69
2023/12/29 06:00:08;;;;;;;28.50;15.10;;;;;;;5.33;74.82;98906.34;105724;1258;109949;-69
2023/12/29 06:02:36;;;;;;;24.40;13.30;;;;;;;5.28;74.37;98908.54;105608;1258;96550;-69
2023/12/29 06:05:05;;;;;;;29.20;15.20;;;;;;;5.27;74.44;98912.85;105653;1258;108719;-68
2023/12/29 06:07:34;;;;;;;27.10;14.70;;;;;;;5.23;74.52;98914.63;105105;1260;96723;-68
2023/12/29 06:10:02;;;;;;;27.90;14.50;;;;;;;5.19;74.88;98906.40;105219;1256;96608;-69
2023/12/29 06:12:30;;;;;;;28.00;14.70;;;;;;;5.14;74.78;98907.19;105030;1261;110040;-68
2023/12/29 06:14:58;;;;;;;29.60;16.00;;;;;;;5.08;74.66;98904.35;105477;1255;96714;-69
2023/12/29 06:17:26;;;;;;;31.30;16.20;;;;;;;5.04;74.50;98911.20;105305;1258;107594;-71
2023/12/29 06:20:11;;;;;;;26.40;15.10;;;;;;;5.01;74.60;98911.55;105042;1261;96640;-71
2023/12/29 06:22:44;;;;;;;28.10;14.90;;;;;;;4.98;74.72;98913.64;104824;1260;97587;-69
2023/12/29 06:25:12;;;;;;;27.50;15.00;;;;;;;4.96;74.59;98914.08;105126;1254;109982;-70
2023/12/29 06:27:40;;;;;;;27.90;15.00;;;;;;;4.96;74.67;98909.02;105271;1260;96624;-69
2023/12/29 06:30:10;;;;;;;27.70;15.30;;;;;;;4.94;74.65;98903.50;105190;1258;106002;-74
2023/12/29 06:32:39;;;;;;;26.60;14.60;;;;;;;4.92;74.53;98897.23;105143;1261;96698;-70
2023/12/29 06:35:09;;;;;;;30.30;15.90;;;;;;;4.93;74.74;98899.66;105483;1258;96689;-70
2023/12/29 06:37:39;;;;;;;29.90;15.20;;;;;;;4.92;74.63;98898.47;105434;1254;110149;-71
2023/12/29 06:40:07;;;;;;;31.10;17.00;;;;;;;4.91;74.58;98896.23;104825;1258;96608;-69
2023/12/29 06:42:35;;;;;;;31.00;17.00;;;;;;;4.89;74.82;98896.66;105208;1258;107506;-73
2023/12/29 06:45:05;;;;;;;30.50;15.70;;;;;;;4.92;74.78;98900.40;104926;1261;98067;-73
2023/12/29 06:47:32;;;;;;;30.20;16.60;;;;;;;4.95;75.09;98906.05;105217;1256;97947;-73
2023/12/29 06:50:02;;;;;;;27.90;15.20;;;;;;;4.99;74.83;98899.35;105319;1258;110084;-72
2023/12/29 06:52:33;;;;;;;27.80;15.10;;;;;;;5.02;75.13;98909.20;105296;1258;96607;-73
2023/12/29 06:55:02;;;;;;;30.00;15.60;;;;;;;5.04;75.14;98910.35;105076;1262;107788;-74
2023/12/29 06:57:30;;;;;;;29.80;15.40;;;;;;;5.04;75.25;98906.45;104987;1261;96672;-73
2023/12/29 06:59:58;;;;;;;28.60;15.90;;;;;;;5.03;75.13;98906.68;104968;1255;96688;-74
2023/12/29 07:02:26;;;;;;;31.30;16.50;;;;;;;5.04;75.12;98907.20;105417;1257;110055;-75
2023/12/29 07:04:53;;;;;;;32.10;16.80;;;;;;;5.06;74.91;98916.02;105460;1258;96556;-73
2023/12/29 07:07:21;;;;;;;32.10;16.40;;;;;;;5.11;74.80;98918.27;105157;1261;107187;-74
2023/12/29 07:09:49;;;;;;;29.90;16.40;;;;;;;5.14;74.62;98925.29;105420;1260;97059;-73
2023/12/29 07:12:18;;;;;;;30.80;17.00;;;;;;;5.17;74.81;98925.83;105184;1258;96631;-74
2023/12/29 07:14:46;;;;;;;30.80;17.50;;;;;;;5.20;74.76;98925.34;105188;1258;109947;-74
2023/12/29 07:17:14;;;;;;;28.80;16.00;;;;;;;5.25;74.70;98921.36;105239;1257;97080;-72
2023/12/29 07:19:42;;;;;;;28.70;15.90;;;;;;;5.29;74.76;98917.98;105199;1262;107667;-74
2023/12/29 07:22:10;;;;;;;29.90;16.90;;;;;;;5.33;74.61;98925.70;105039;1261;96713;-74
2023/12/29 07:24:38;;;;;;;35.10;16.70;;;;;;;5.35;74.61;98921.34;105298;1258;97427;-73
2023/12/29 07:27:07;;;;;;;27.70;15.10;;;;;;;5.37;74.58;98922.31;105031;1258;109918;-72
2023/12/29 07:29:35;;;;;;;29.20;16.20;;;;;;;5.40;74.73;98924.83;105170;1259;96608;-75
2023/12/29 07:32:05;;;;;;;27.80;15.40;;;;;;;5.40;74.95;98922.37;105015;1254;106231;-72
2023/12/29 07:34:33;;;;;;;32.00;16.70;;;;;;;5.41;74.82;98919.69;105094;1256;96614;-75
2023/12/29 07:37:02;;;;;;;33.00;17.70;;;;;;;5.44;74.71;98918.78;105484;1259;97827;-72
2023/12/29 07:39:30;;;;;;;28.90;15.80;;;;;;;5.47;74.84;98919.85;105445;1270;110296;-74
2023/12/29 07:41:58;;;;;;;29.40;15.30;;;;;;;5.50;74.81;98911.23;105325;1261;96528;-73
2023/12/29 07:44:26;;;;;;;29.40;16.50;;;;;;;5.54;74.89;98920.36;105156;1258;107122;-74
2023/12/29 07:46:57;;;;;;;28.60;16.00;;;;;;;5.58;74.80;98918.55;105227;1258;97818;-72
2023/12/29 07:49:25;;;;;;;26.90;16.00;;;;;;;5.63;74.87;98916.50;105545;1256;97647;-72
2023/12/29 07:51:53;;;;;;;28.40;15.00;;;;;;;5.67;74.92;98910.70;105440;1256;109174;-71
2023/12/29 07:54:21;;;;;;;29.80;15.70;;;;;;;5.71;74.84;98907.33;105169;1270;96737;-71
2023/12/29 07:56:50;;;;;;;30.20;16.70;;;;;;;5.74;74.91;98910.65;105218;1255;106623;-71
2023/12/29 07:59:18;;;;;;;31.20;16.40;;;;;;;5.76;74.66;98915.25;105516;1258;96687;-71
2023/12/29 08:01:46;;;;;;;32.50;17.00;;;;;;;5.82;74.83;98913.92;105303;1258;96650;-72
2023/12/29 08:04:14;;;;;;;30.50;17.60;;;;;;;5.88;74.87;98915.52;105407;1256;109956;-71
2023/12/29 08:06:43;;;;;;;31.70;17.00;;;;;;;5.94;74.86;98912.55;105378;1259;96601;-70
2023/12/29 08:09:11;;;;;;;32.40;17.80;;;;;;;5.98;74.81;98913.55;105332;1258;107579;-71
2023/12/29 08:11:38;;;;;;;31.20;16.20;;;;;;;6.02;74.63;98908.64;105381;1258;96609;-72
2023/12/29 08:14:08;;;;;;;29.10;16.80;;;;;;;6.04;74.47;98910.09;105270;1260;96629;-72
2023/12/29 08:16:40;;;;;;;30.70;17.70;;;;;;;6.05;74.64;98908.44;105234;1258;109996;-72
2023/12/29 08:19:09;;;;;;;29.80;16.30;;;;;;;6.08;74.61;98928.02;105314;1261;96700;-71
2023/12/29 08:21:38;;;;;;;30.50;15.50;;;;;;;6.12;74.67;98931.99;105362;1258;107166;-70
2023/12/29 08:24:06;;;;;;;30.40;16.90;;;;;;;6.16;74.57;98931.25;105395;1259;96605;-72
2023/12/29 08:26:34;;;;;;;31.90;17.80;;;;;;;6.20;74.56;98946.70;105124;1261;96575;-71
2023/12/29 08:29:02;;;;;;;28.50;15.70;;;;;;;6.21;74.47;98947.67;105363;1258;109553;-70
2023/12/29 08:31:30;;;;;;;30.30;16.40;;;;;;;6.23;74.52;98949.69;105137;1258;97431;-71
2023/12/29 08:33:58;;;;;;;30.90;17.10;;;;;;;6.24;74.54;98944.72;105292;1258;107742;-71
2023/12/29 08:36:25;;;;;;;28.40;16.30;;;;;;;6.21;74.48;98950.67;105223;1261;97534;-71
2023/12/29 08:38:54;;;;;;;30.90;16.80;;;;;;;6.20;74.52;98947.57;105226;1258;97334;-71
2023/12/29 08:41:21;;;;;;;30.90;16.90;;;;;;;6.20;74.51;98951.30;105375;1258;108875;-71
2023/12/29 08:43:49;;;;;;;32.10;18.50;;;;;;;6.20;74.56;98957.27;105110;1255;96631;-70
2023/12/29 08:46:17;;;;;;;31.30;17.30;;;;;;;6.22;74.51;98959.97;105114;1260;107617;-71
2023/12/29 08:48:46;;;;;;;32.40;17.80;;;;;;;6.24;74.59;98964.95;105425;1260;96736;-71
2023/12/29 08:51:14;;;;;;;30.10;16.30;;;;;;;6.27;74.63;98961.63;105241;1258;97437;-72
2023/12/29 08:53:42;;;;;;;28.10;15.70;;;;;;;6.29;74.59;98956.27;105062;1255;109994;-71
2023/12/29 08:56:10;;;;;;;28.30;14.90;;;;;;;6.31;74.36;98954.34;105157;1258;96621;-72
2023/12/29 08:58:37;;;;;;;31.90;16.40;;;;;;;6.33;74.49;98964.78;105254;1258;107520;-71
2023/12/29 09:01:05;;;;;;;31.50;18.00;;;;;;;6.36;74.39;98959.70;105178;1258;96652;-71
2023/12/29 09:03:33;;;;;;;29.10;16.80;;;;;;;6.38;74.50;98947.42;105328;1258;97832;-70
2023/12/29 09:06:02;;;;;;;28.80;15.60;;;;;;;6.39;74.56;98948.08;105333;1260;109911;-71
2023/12/29 09:08:30;;;;;;;29.50;15.90;;;;;;;6.40;74.56;98947.66;105041;1262;96605;-74
2023/12/29 09:10:58;;;;;;;29.40;16.70;;;;;;;6.43;74.63;98943.98;105126;1258;107638;-73
2023/12/29 09:13:26;;;;;;;34.10;18.90;;;;;;;6.47;74.50;98942.17;105214;1257;96708;-75
2023/12/29 09:15:55;;;;;;;30.20;16.90;;;;;;;6.51;74.50;98935.95;105200;1258;96611;-72
2023/12/29 09:18:23;;;;;;;31.00;18.30;;;;;;;6.54;74.67;98927.46;105237;1259;108521;-72
2023/12/29 09:20:51;;;;;;;29.70;15.90;;;;;;;6.56;74.45;98929.83;105205;1258;96631;-73
2023/12/29 09:23:20;;;;;;;29.20;16.70;;;;;;;6.59;74.30;98925.11;105204;1255;107377;-73
2023/12/29 09:25:48;;;;;;;31.40;18.00;;;;;;;6.61;74.51;98927.43;105358;1259;96612;-74
2023/12/29 09:28:16;;;;;;;30.50;17.20;;;;;;;6.64;74.58;98930.48;105345;1271;97537;-71
2023/12/29 09:30:44;;;;;;;32.00;17.50;;;;;;;6.66;74.34;98932.27;105293;1260;108948;-72
2023/12/29 09:33:12;;;;;;;29.80;17.30;;;;;;;6.67;74.42;98922.34;105302;1258;97427;-73
2023/12/29 09:35:40;;;;;;;29.80;16.20;;;;;;;6.67;74.33;98915.64;105249;1258;107700;-72
2023/12/29 09:38:09;;;;;;;32.70;17.90;;;;;;;6.67;74.37;98914.92;104989;1260;96780;-73
2023/12/29 09:40:37;;;;;;;31.40;17.60;;;;;;;6.71;74.29;98916.99;105390;1258;96613;-73
2023/12/29 09:43:05;;;;;;;32.60;18.00;;;;;;;6.74;74.30;98909.23;105445;1253;109968;-69
2023/12/29 09:45:40;;;;;;;31.00;16.80;;;;;;;6.79;74.45;98907.34;105372;1258;96643;-74
2023/12/29 09:48:12;;;;;;;31.70;17.80;;;;;;;6.84;74.21;98902.45;105258;1261;107629;-74
2023/12/29 09:50:42;;;;;;;31.50;18.20;;;;;;;6.88;74.06;98901.56;105181;1259;96702;-72
2023/12/29 09:53:11;;;;;;;34.20;19.40;;;;;;;6.92;74.17;98905.19;105221;1258;96732;-73
2023/12/29 09:55:40;;;;;;;32.80;17.40;;;;;;;6.96;74.09;98910.55;105352;1261;110028;-71
2023/12/29 09:58:12;;;;;;;37.30;19.00;;;;;;;6.99;73.89;98912.66;105126;1256;96574;-72
2023/12/29 10:00:40;;;;;;;32.20;17.90;;;;;;;7.06;74.38;98904.52;105226;1258;107165;-72
2023/12/29 10:03:09;;;;;;;35.00;19.30;;;;;;;7.12;74.41;98903.95;105405;1258;97568;-71
2023/12/29 10:05:37;;;;;;;28.40;15.80;;;;;;;7.20;74.37;98902.59;105274;1262;96622;-71
2023/12/29 10:08:08;;;;;;;28.50;15.40;;;;;;;7.24;73.78;98896.17;105166;1260;110026;-71
2023/12/29 10:10:39;;;;;;;33.00;17.50;;;;;;;7.27;73.81;98898.31;108460;1253;95626;-70
2023/12/29 10:13:09;;;;;;;30.10;17.20;;;;;;;7.28;73.55;98893.68;106610;1260;107685;-70
2023/12/29 10:15:46;;;;;;;29.10;16.20;;;;;;;7.28;73.63;98890.27;105402;1260;97528;-70
2023/12/29 10:18:22;;;;;;;31.50;17.20;;;;;;;7.33;73.54;98889.51;105377;1258;96961;-71
2023/12/29 10:21:18;;;;;;;30.40;15.80;;;;;;;7.34;73.26;98883.74;105139;1255;110350;-71
2023/12/29 10:24:04;;;;;;;28.60;16.80;;;;;;;7.36;73.47;98881.17;105079;1258;96517;-71
2023/12/29 10:26:35;;;;;;;31.40;15.80;;;;;;;7.40;73.69;98868.38;105388;1258;107701;-70
2023/12/29 10:29:03;;;;;;;32.40;16.70;;;;;;;7.42;73.56;98862.27;106161;1258;96625;-70
2023/12/29 10:31:31;;;;;;;30.90;16.40;;;;;;;7.41;73.27;98861.61;105445;1260;97523;-71
2023/12/29 10:34:29;;;;;;;29.80;14.90;;;;;;;7.40;73.50;98861.35;105018;1258;108409;-70
2023/12/29 10:36:59;;;;;;;31.90;16.70;;;;;;;7.40;73.04;98851.79;105143;1259;97577;-71
2023/12/29 10:39:28;;;;;;;30.10;16.50;;;;;;;7.38;73.37;98849.83;104882;1261;107687;-72
2023/12/29 10:42:07;;;;;;;31.10;16.70;;;;;;;7.34;72.69;98843.02;105170;1260;96612;-70
2023/12/29 10:44:36;;;;;;;30.00;16.70;;;;;;;7.32;73.35;98835.42;105021;1261;97919;-71
2023/12/29 10:47:12;;;;;;;29.70;16.30;;;;;;;7.33;73.39;98837.64;105196;1258;109628;-69
2023/12/29 10:49:40;;;;;;;30.50;16.40;;;;;;;7.36;73.24;98832.66;105290;1262;96628;-71
2023/12/29 10:52:13;;;;;;;31.50;17.90;;;;;;;7.38;73.65;98835.17;105117;1259;107651;-71
2023/12/29 10:54:42;;;;;;;32.10;17.60;;;;;;;7.42;73.44;98828.93;105191;1258;96624;-71
2023/12/29 10:57:12;;;;;;;33.80;16.80;;;;;;;7.42;73.20;98833.85;105255;1258;96716;-71
2023/12/29 10:59:40;;;;;;;32.30;16.90;;;;;;;7.40;73.13;98833.11;105159;1260;109530;-70
2023/12/29 11:03:35;;;;;;;31.90;16.30;;;;;;;7.42;73.02;98829.10;101805;1305;636183;-71
2023/12/29 11:06:03;;;;;;;34.00;16.60;;;;;;;7.37;72.94;98824.65;104629;1266;94300;-71
2023/12/29 11:08:35;;;;;;;30.60;16.40;;;;;;;7.35;72.86;98824.77;104388;1282;94317;-71
2023/12/29 11:11:04;;;;;;;32.90;17.40;;;;;;;7.35;73.04;98822.81;104430;1274;107165;-71
2023/12/29 11:13:33;;;;;;;29.20;16.50;;;;;;;7.35;73.03;98817.89;104545;1270;95499;-71
2023/12/29 11:16:02;;;;;;;31.60;17.00;;;;;;;7.38;73.30;98832.52;104385;1271;107428;-70
2023/12/29 11:18:30;;;;;;;31.40;16.50;;;;;;;7.41;72.73;98820.67;104593;1267;94414;-71
2023/12/29 11:21:02;;;;;;;30.90;17.10;;;;;;;7.41;72.87;98811.38;104700;1267;94774;-70
2023/12/29 11:23:30;;;;;;;31.60;15.80;;;;;;;7.41;72.76;98807.98;104773;1267;109264;-71
2023/12/29 11:25:59;;;;;;;28.10;15.30;;;;;;;7.43;72.95;98802.04;104862;1264;95362;-71